sensor_id;sensor_type;location;lat;lon;timestamp;P1;durP1;ratioP1;P2;durP2;ratioP2
3643;SDS011;1838;50.742;7.158;2023-11-19T00:00:29;1.90;;;0.90;;
3643;SDS011;1838;50.742;7.158;2023-11-19T00:02:55;2.57;;;0.90;;
3643;SDS011;1838;50.742;7.158;2023-11-19T00:05:20;1.33;;;0.70;;
3643;SDS011;1838;50.742;7.158;2023-11-19T00:07:46;1.30;;;0.67;;
3643;SDS011;1838;50.742;7.158;2023-11-19T00:10:12;1.50;;;0.80;;
3643;SDS011;1838;50.742;7.158;2023-11-19T00:12:42;1.90;;;0.83;;
3643;SDS011;1838;50.742;7.158;2023-11-19T00:15:09;3.03;;;0.80;;
3643;SDS011;1838;50.742;7.158;2023-11-19T00:17:38;3.10;;;0.80;;
3643;SDS011;1838;50.742;7.158;2023-11-19T00:20:12;1.43;;;0.70;;
3643;SDS011;1838;50.742;7.158;2023-11-19T00:22:39;4.90;;;0.80;;
3643;SDS011;1838;50.742;7.158;2023-11-19T00:25:05;1.50;;;0.80;;
3643;SDS011;1838;50.742;7.158;2023-11-19T00:27:31;1.50;;;0.80;;
3643;SDS011;1838;50.742;7.158;2023-11-19T00:29:56;1.67;;;0.80;;
3643;SDS011;1838;50.742;7.158;2023-11-19T00:32:22;2.97;;;0.70;;
3643;SDS011;1838;50.742;7.158;2023-11-19T00:34:48;5.10;;;0.80;;
3643;SDS011;1838;50.742;7.158;2023-11-19T00:37:14;1.60;;;0.80;;
3643;SDS011;1838;50.742;7.158;2023-11-19T00:39:40;1.47;;;0.80;;
3643;SDS011;1838;50.742;7.158;2023-11-19T00:42:09;1.30;;;0.60;;
3643;SDS011;1838;50.742;7.158;2023-11-19T00:44:38;1.80;;;0.87;;
3643;SDS011;1838;50.742;7.158;2023-11-19T00:47:04;1.30;;;0.73;;
3643;SDS011;1838;50.742;7.158;2023-11-19T00:49:30;1.40;;;0.70;;
3643;SDS011;1838;50.742;7.158;2023-11-19T00:51:57;2.60;;;0.80;;
3643;SDS011;1838;50.742;7.158;2023-11-19T00:54:23;1.60;;;0.70;;
3643;SDS011;1838;50.742;7.158;2023-11-19T00:56:50;3.20;;;0.77;;
3643;SDS011;1838;50.742;7.158;2023-11-19T00:59:19;1.30;;;0.70;;
3643;SDS011;1838;50.742;7.158;2023-11-19T01:01:45;1.40;;;0.60;;
3643;SDS011;1838;50.742;7.158;2023-11-19T01:04:10;1.37;;;0.70;;
3643;SDS011;1838;50.742;7.158;2023-11-19T01:06:36;1.43;;;0.80;;
3643;SDS011;1838;50.742;7.158;2023-11-19T01:09:01;1.50;;;0.90;;
3643;SDS011;1838;50.742;7.158;2023-11-19T01:11:27;1.33;;;0.70;;
3643;SDS011;1838;50.742;7.158;2023-11-19T01:13:53;1.20;;;0.70;;
3643;SDS011;1838;50.742;7.158;2023-11-19T01:16:19;1.67;;;0.83;;
3643;SDS011;1838;50.742;7.158;2023-11-19T01:18:48;1.40;;;0.60;;
3643;SDS011;1838;50.742;7.158;2023-11-19T01:21:14;4.63;;;0.90;;
3643;SDS011;1838;50.742;7.158;2023-11-19T01:23:40;1.30;;;0.70;;
3643;SDS011;1838;50.742;7.158;2023-11-19T01:26:09;2.90;;;0.70;;
3643;SDS011;1838;50.742;7.158;2023-11-19T01:28:35;2.60;;;0.80;;
3643;SDS011;1838;50.742;7.158;2023-11-19T01:31:01;1.50;;;0.80;;
3643;SDS011;1838;50.742;7.158;2023-11-19T01:33:28;1.93;;;0.77;;
3643;SDS011;1838;50.742;7.158;2023-11-19T01:35:54;3.77;;;0.90;;
3643;SDS011;1838;50.742;7.158;2023-11-19T01:38:19;4.17;;;0.70;;
3643;SDS011;1838;50.742;7.158;2023-11-19T01:40:45;1.97;;;0.70;;
3643;SDS011;1838;50.742;7.158;2023-11-19T01:43:10;1.50;;;0.67;;
3643;SDS011;1838;50.742;7.158;2023-11-19T01:45:36;2.43;;;0.77;;
3643;SDS011;1838;50.742;7.158;2023-11-19T01:48:03;2.70;;;0.70;;
3643;SDS011;1838;50.742;7.158;2023-11-19T01:50:29;1.20;;;0.60;;
3643;SDS011;1838;50.742;7.158;2023-11-19T01:52:56;1.40;;;0.80;;
3643;SDS011;1838;50.742;7.158;2023-11-19T01:55:22;2.90;;;0.90;;
3643;SDS011;1838;50.742;7.158;2023-11-19T01:57:50;1.50;;;0.80;;
3643;SDS011;1838;50.742;7.158;2023-11-19T02:00:18;1.70;;;1.13;;
3643;SDS011;1838;50.742;7.158;2023-11-19T02:02:45;2.57;;;1.20;;
3643;SDS011;1838;50.742;7.158;2023-11-19T02:05:11;2.03;;;0.80;;
3643;SDS011;1838;50.742;7.158;2023-11-19T02:07:38;5.00;;;0.80;;
3643;SDS011;1838;50.742;7.158;2023-11-19T02:10:03;1.33;;;0.73;;
3643;SDS011;1838;50.742;7.158;2023-11-19T02:12:30;1.40;;;0.70;;
3643;SDS011;1838;50.742;7.158;2023-11-19T02:14:59;1.20;;;0.60;;
3643;SDS011;1838;50.742;7.158;2023-11-19T02:17:33;1.60;;;0.70;;
3643;SDS011;1838;50.742;7.158;2023-11-19T02:20:05;1.67;;;0.80;;
3643;SDS011;1838;50.742;7.158;2023-11-19T02:22:34;2.20;;;0.80;;
3643;SDS011;1838;50.742;7.158;2023-11-19T02:25:00;1.30;;;0.70;;
3643;SDS011;1838;50.742;7.158;2023-11-19T02:27:44;1.37;;;0.63;;
3643;SDS011;1838;50.742;7.158;2023-11-19T02:30:23;1.30;;;0.70;;
3643;SDS011;1838;50.742;7.158;2023-11-19T02:32:53;1.40;;;0.60;;
3643;SDS011;1838;50.742;7.158;2023-11-19T02:35:23;1.40;;;0.70;;
3643;SDS011;1838;50.742;7.158;2023-11-19T02:37:49;2.03;;;0.70;;
3643;SDS011;1838;50.742;7.158;2023-11-19T02:40:14;2.57;;;0.80;;
3643;SDS011;1838;50.742;7.158;2023-11-19T02:42:40;1.40;;;0.73;;
3643;SDS011;1838;50.742;7.158;2023-11-19T02:45:06;1.30;;;0.60;;
3643;SDS011;1838;50.742;7.158;2023-11-19T02:47:33;1.40;;;0.80;;
3643;SDS011;1838;50.742;7.158;2023-11-19T02:49:59;1.30;;;0.60;;
3643;SDS011;1838;50.742;7.158;2023-11-19T02:52:24;3.40;;;0.73;;
3643;SDS011;1838;50.742;7.158;2023-11-19T02:54:50;1.30;;;0.70;;
3643;SDS011;1838;50.742;7.158;2023-11-19T02:57:16;2.60;;;0.60;;
3643;SDS011;1838;50.742;7.158;2023-11-19T02:59:44;1.23;;;0.60;;
3643;SDS011;1838;50.742;7.158;2023-11-19T03:02:10;3.23;;;0.70;;
3643;SDS011;1838;50.742;7.158;2023-11-19T03:04:36;1.63;;;0.80;;
3643;SDS011;1838;50.742;7.158;2023-11-19T03:07:07;1.73;;;0.70;;
3643;SDS011;1838;50.742;7.158;2023-11-19T03:09:33;2.50;;;0.80;;
3643;SDS011;1838;50.742;7.158;2023-11-19T03:12:00;2.00;;;0.60;;
3643;SDS011;1838;50.742;7.158;2023-11-19T03:14:26;1.60;;;0.60;;
3643;SDS011;1838;50.742;7.158;2023-11-19T03:16:51;3.30;;;1.00;;
3643;SDS011;1838;50.742;7.158;2023-11-19T03:19:17;2.97;;;0.70;;
3643;SDS011;1838;50.742;7.158;2023-11-19T03:21:42;1.50;;;0.70;;
3643;SDS011;1838;50.742;7.158;2023-11-19T03:24:09;1.37;;;0.70;;
3643;SDS011;1838;50.742;7.158;2023-11-19T03:26:35;4.37;;;0.97;;
3643;SDS011;1838;50.742;7.158;2023-11-19T03:29:02;2.53;;;0.70;;
3643;SDS011;1838;50.742;7.158;2023-11-19T03:31:27;9.70;;;1.37;;
3643;SDS011;1838;50.742;7.158;2023-11-19T03:33:53;3.13;;;0.90;;
3643;SDS011;1838;50.742;7.158;2023-11-19T03:36:19;5.83;;;0.83;;
3643;SDS011;1838;50.742;7.158;2023-11-19T03:38:44;2.93;;;0.90;;
3643;SDS011;1838;50.742;7.158;2023-11-19T03:41:11;3.60;;;0.90;;
3643;SDS011;1838;50.742;7.158;2023-11-19T03:43:37;6.83;;;1.17;;
3643;SDS011;1838;50.742;7.158;2023-11-19T03:46:03;2.50;;;0.90;;
3643;SDS011;1838;50.742;7.158;2023-11-19T03:48:30;2.90;;;1.20;;
3643;SDS011;1838;50.742;7.158;2023-11-19T03:50:56;3.30;;;1.00;;
3643;SDS011;1838;50.742;7.158;2023-11-19T03:53:21;3.03;;;1.30;;
3643;SDS011;1838;50.742;7.158;2023-11-19T03:55:47;5.20;;;1.37;;
3643;SDS011;1838;50.742;7.158;2023-11-19T03:58:12;2.23;;;1.00;;
3643;SDS011;1838;50.742;7.158;2023-11-19T04:00:38;3.13;;;1.10;;
3643;SDS011;1838;50.742;7.158;2023-11-19T04:03:03;7.40;;;0.97;;
3643;SDS011;1838;50.742;7.158;2023-11-19T04:05:29;5.07;;;1.20;;
3643;SDS011;1838;50.742;7.158;2023-11-19T04:07:55;2.63;;;1.20;;
3643;SDS011;1838;50.742;7.158;2023-11-19T04:10:20;6.70;;;1.00;;
3643;SDS011;1838;50.742;7.158;2023-11-19T04:12:47;9.47;;;1.60;;
3643;SDS011;1838;50.742;7.158;2023-11-19T04:15:13;6.07;;;1.33;;
3643;SDS011;1838;50.742;7.158;2023-11-19T04:17:39;5.10;;;1.50;;
3643;SDS011;1838;50.742;7.158;2023-11-19T04:20:05;3.17;;;1.30;;
3643;SDS011;1838;50.742;7.158;2023-11-19T04:22:31;3.00;;;1.37;;
3643;SDS011;1838;50.742;7.158;2023-11-19T04:24:56;4.03;;;1.00;;
3643;SDS011;1838;50.742;7.158;2023-11-19T04:27:22;3.97;;;1.43;;
3643;SDS011;1838;50.742;7.158;2023-11-19T04:29:47;4.30;;;1.13;;
3643;SDS011;1838;50.742;7.158;2023-11-19T04:32:13;10.97;;;1.13;;
3643;SDS011;1838;50.742;7.158;2023-11-19T04:34:39;3.60;;;1.03;;
3643;SDS011;1838;50.742;7.158;2023-11-19T04:37:04;2.00;;;1.00;;
3643;SDS011;1838;50.742;7.158;2023-11-19T04:39:30;9.60;;;2.37;;
3643;SDS011;1838;50.742;7.158;2023-11-19T04:41:55;5.83;;;1.40;;
3643;SDS011;1838;50.742;7.158;2023-11-19T04:44:21;3.73;;;1.23;;
3643;SDS011;1838;50.742;7.158;2023-11-19T04:46:47;2.50;;;1.50;;
3643;SDS011;1838;50.742;7.158;2023-11-19T04:49:13;5.70;;;1.70;;
3643;SDS011;1838;50.742;7.158;2023-11-19T04:51:43;7.57;;;1.70;;
3643;SDS011;1838;50.742;7.158;2023-11-19T04:54:12;10.70;;;1.87;;
3643;SDS011;1838;50.742;7.158;2023-11-19T04:56:37;4.07;;;2.17;;
3643;SDS011;1838;50.742;7.158;2023-11-19T04:59:03;4.77;;;2.00;;
3643;SDS011;1838;50.742;7.158;2023-11-19T05:01:32;5.53;;;1.77;;
3643;SDS011;1838;50.742;7.158;2023-11-19T05:03:58;11.07;;;2.07;;
3643;SDS011;1838;50.742;7.158;2023-11-19T05:06:26;5.10;;;1.77;;
3643;SDS011;1838;50.742;7.158;2023-11-19T05:08:53;7.10;;;2.00;;
3643;SDS011;1838;50.742;7.158;2023-11-19T05:11:19;8.63;;;2.10;;
3643;SDS011;1838;50.742;7.158;2023-11-19T05:13:45;6.60;;;2.30;;
3643;SDS011;1838;50.742;7.158;2023-11-19T05:16:10;14.27;;;2.30;;
3643;SDS011;1838;50.742;7.158;2023-11-19T05:18:39;6.83;;;2.50;;
3643;SDS011;1838;50.742;7.158;2023-11-19T05:21:05;7.60;;;1.90;;
3643;SDS011;1838;50.742;7.158;2023-11-19T05:23:31;13.53;;;2.73;;
3643;SDS011;1838;50.742;7.158;2023-11-19T05:25:58;8.93;;;1.93;;
3643;SDS011;1838;50.742;7.158;2023-11-19T05:28:25;13.33;;;2.40;;
3643;SDS011;1838;50.742;7.158;2023-11-19T05:30:51;11.33;;;2.10;;
3643;SDS011;1838;50.742;7.158;2023-11-19T05:33:16;8.30;;;2.43;;
3643;SDS011;1838;50.742;7.158;2023-11-19T05:35:42;7.80;;;2.07;;
3643;SDS011;1838;50.742;7.158;2023-11-19T05:38:07;13.33;;;2.60;;
3643;SDS011;1838;50.742;7.158;2023-11-19T05:40:34;9.10;;;2.30;;
3643;SDS011;1838;50.742;7.158;2023-11-19T05:43:00;10.57;;;2.30;;
3643;SDS011;1838;50.742;7.158;2023-11-19T05:45:25;5.57;;;1.93;;
3643;SDS011;1838;50.742;7.158;2023-11-19T05:47:51;8.50;;;2.77;;
3643;SDS011;1838;50.742;7.158;2023-11-19T05:50:17;17.70;;;4.40;;
3643;SDS011;1838;50.742;7.158;2023-11-19T05:52:43;14.53;;;2.87;;
3643;SDS011;1838;50.742;7.158;2023-11-19T05:55:09;11.17;;;3.00;;
3643;SDS011;1838;50.742;7.158;2023-11-19T05:57:35;16.30;;;2.33;;
3643;SDS011;1838;50.742;7.158;2023-11-19T06:00:02;11.50;;;2.10;;
3643;SDS011;1838;50.742;7.158;2023-11-19T06:02:32;16.53;;;2.60;;
3643;SDS011;1838;50.742;7.158;2023-11-19T06:04:58;10.83;;;2.97;;
3643;SDS011;1838;50.742;7.158;2023-11-19T06:07:23;11.20;;;2.53;;
3643;SDS011;1838;50.742;7.158;2023-11-19T06:09:50;16.07;;;2.60;;
3643;SDS011;1838;50.742;7.158;2023-11-19T06:12:15;11.70;;;2.83;;
3643;SDS011;1838;50.742;7.158;2023-11-19T06:14:41;12.07;;;2.63;;
3643;SDS011;1838;50.742;7.158;2023-11-19T06:17:06;24.97;;;4.83;;
3643;SDS011;1838;50.742;7.158;2023-11-19T06:19:33;14.73;;;2.70;;
3643;SDS011;1838;50.742;7.158;2023-11-19T06:21:59;21.03;;;4.70;;
3643;SDS011;1838;50.742;7.158;2023-11-19T06:24:24;20.40;;;3.90;;
3643;SDS011;1838;50.742;7.158;2023-11-19T06:26:50;9.90;;;3.20;;
3643;SDS011;1838;50.742;7.158;2023-11-19T06:29:15;18.93;;;3.80;;
3643;SDS011;1838;50.742;7.158;2023-11-19T06:31:44;15.13;;;2.87;;
3643;SDS011;1838;50.742;7.158;2023-11-19T06:34:10;10.53;;;2.80;;
3643;SDS011;1838;50.742;7.158;2023-11-19T06:36:35;23.23;;;4.43;;
3643;SDS011;1838;50.742;7.158;2023-11-19T06:39:01;19.53;;;3.40;;
3643;SDS011;1838;50.742;7.158;2023-11-19T06:41:27;13.67;;;3.30;;
3643;SDS011;1838;50.742;7.158;2023-11-19T06:43:54;14.63;;;3.30;;
3643;SDS011;1838;50.742;7.158;2023-11-19T06:46:19;16.27;;;2.53;;
3643;SDS011;1838;50.742;7.158;2023-11-19T06:48:45;14.73;;;3.80;;
3643;SDS011;1838;50.742;7.158;2023-11-19T06:51:11;9.77;;;3.50;;
3643;SDS011;1838;50.742;7.158;2023-11-19T06:53:37;17.70;;;3.07;;
3643;SDS011;1838;50.742;7.158;2023-11-19T06:56:04;18.63;;;3.03;;
3643;SDS011;1838;50.742;7.158;2023-11-19T06:58:31;12.60;;;3.83;;
3643;SDS011;1838;50.742;7.158;2023-11-19T07:01:00;18.73;;;3.40;;
3643;SDS011;1838;50.742;7.158;2023-11-19T07:03:26;9.00;;;2.70;;
3643;SDS011;1838;50.742;7.158;2023-11-19T07:05:51;17.60;;;4.27;;
3643;SDS011;1838;50.742;7.158;2023-11-19T07:08:17;17.10;;;3.97;;
3643;SDS011;1838;50.742;7.158;2023-11-19T07:10:42;13.23;;;3.40;;
3643;SDS011;1838;50.742;7.158;2023-11-19T07:13:08;26.13;;;4.40;;
3643;SDS011;1838;50.742;7.158;2023-11-19T07:15:33;10.20;;;2.63;;
3643;SDS011;1838;50.742;7.158;2023-11-19T07:17:59;22.30;;;3.10;;
3643;SDS011;1838;50.742;7.158;2023-11-19T07:20:24;20.93;;;5.13;;
3643;SDS011;1838;50.742;7.158;2023-11-19T07:22:52;21.93;;;3.93;;
3643;SDS011;1838;50.742;7.158;2023-11-19T07:25:19;27.33;;;4.17;;
3643;SDS011;1838;50.742;7.158;2023-11-19T07:27:45;10.37;;;3.50;;
3643;SDS011;1838;50.742;7.158;2023-11-19T07:30:12;27.73;;;4.93;;
3643;SDS011;1838;50.742;7.158;2023-11-19T07:32:37;15.80;;;3.23;;
3643;SDS011;1838;50.742;7.158;2023-11-19T07:35:04;12.20;;;3.67;;
3643;SDS011;1838;50.742;7.158;2023-11-19T07:37:30;21.60;;;4.27;;
3643;SDS011;1838;50.742;7.158;2023-11-19T07:39:56;13.30;;;3.50;;
3643;SDS011;1838;50.742;7.158;2023-11-19T07:42:21;21.43;;;3.90;;
3643;SDS011;1838;50.742;7.158;2023-11-19T07:44:47;24.67;;;3.77;;
3643;SDS011;1838;50.742;7.158;2023-11-19T07:47:13;14.23;;;3.20;;
3643;SDS011;1838;50.742;7.158;2023-11-19T07:49:38;20.17;;;3.73;;
3643;SDS011;1838;50.742;7.158;2023-11-19T07:52:04;12.37;;;4.00;;
3643;SDS011;1838;50.742;7.158;2023-11-19T07:54:30;13.30;;;4.20;;
3643;SDS011;1838;50.742;7.158;2023-11-19T07:56:55;21.40;;;4.40;;
3643;SDS011;1838;50.742;7.158;2023-11-19T07:59:21;17.20;;;4.20;;
3643;SDS011;1838;50.742;7.158;2023-11-19T08:01:47;23.50;;;3.77;;
3643;SDS011;1838;50.742;7.158;2023-11-19T08:04:12;25.70;;;3.78;;
3643;SDS011;1838;50.742;7.158;2023-11-19T08:06:38;18.93;;;3.50;;
3643;SDS011;1838;50.742;7.158;2023-11-19T08:09:04;17.93;;;3.90;;
3643;SDS011;1838;50.742;7.158;2023-11-19T08:11:31;12.50;;;3.03;;
3643;SDS011;1838;50.742;7.158;2023-11-19T08:13:56;24.83;;;4.47;;
3643;SDS011;1838;50.742;7.158;2023-11-19T08:16:22;14.77;;;3.77;;
3643;SDS011;1838;50.742;7.158;2023-11-19T08:18:47;16.73;;;4.87;;
3643;SDS011;1838;50.742;7.158;2023-11-19T08:21:13;13.03;;;3.63;;
3643;SDS011;1838;50.742;7.158;2023-11-19T08:23:38;20.03;;;4.00;;
3643;SDS011;1838;50.742;7.158;2023-11-19T08:26:04;18.10;;;3.90;;
3643;SDS011;1838;50.742;7.158;2023-11-19T08:28:30;17.40;;;4.00;;
3643;SDS011;1838;50.742;7.158;2023-11-19T08:30:56;13.80;;;3.60;;
3643;SDS011;1838;50.742;7.158;2023-11-19T08:33:22;15.20;;;4.60;;
3643;SDS011;1838;50.742;7.158;2023-11-19T08:35:47;17.27;;;3.70;;
3643;SDS011;1838;50.742;7.158;2023-11-19T08:38:13;16.30;;;4.20;;
3643;SDS011;1838;50.742;7.158;2023-11-19T08:40:38;15.03;;;4.00;;
3643;SDS011;1838;50.742;7.158;2023-11-19T08:43:04;19.37;;;4.60;;
3643;SDS011;1838;50.742;7.158;2023-11-19T08:45:30;22.23;;;3.63;;
3643;SDS011;1838;50.742;7.158;2023-11-19T08:47:56;27.43;;;3.77;;
3643;SDS011;1838;50.742;7.158;2023-11-19T08:50:22;24.17;;;5.57;;
3643;SDS011;1838;50.742;7.158;2023-11-19T08:52:48;17.10;;;4.47;;
3643;SDS011;1838;50.742;7.158;2023-11-19T08:55:14;17.43;;;3.37;;
3643;SDS011;1838;50.742;7.158;2023-11-19T08:57:39;22.33;;;3.90;;
3643;SDS011;1838;50.742;7.158;2023-11-19T09:00:05;20.83;;;4.97;;
3643;SDS011;1838;50.742;7.158;2023-11-19T09:02:37;22.73;;;4.70;;
3643;SDS011;1838;50.742;7.158;2023-11-19T09:05:03;15.33;;;4.70;;
3643;SDS011;1838;50.742;7.158;2023-11-19T09:07:29;11.17;;;3.13;;
3643;SDS011;1838;50.742;7.158;2023-11-19T09:09:55;17.03;;;4.43;;
3643;SDS011;1838;50.742;7.158;2023-11-19T09:12:20;18.30;;;4.00;;
3643;SDS011;1838;50.742;7.158;2023-11-19T09:14:46;22.53;;;4.20;;
3643;SDS011;1838;50.742;7.158;2023-11-19T09:17:11;11.67;;;4.73;;
3643;SDS011;1838;50.742;7.158;2023-11-19T09:19:37;13.40;;;4.43;;
3643;SDS011;1838;50.742;7.158;2023-11-19T09:22:02;24.57;;;4.17;;
3643;SDS011;1838;50.742;7.158;2023-11-19T09:24:28;21.17;;;4.03;;
3643;SDS011;1838;50.742;7.158;2023-11-19T09:26:54;10.70;;;3.57;;
3643;SDS011;1838;50.742;7.158;2023-11-19T09:29:21;22.07;;;5.07;;
3643;SDS011;1838;50.742;7.158;2023-11-19T09:31:46;24.10;;;4.80;;
3643;SDS011;1838;50.742;7.158;2023-11-19T09:34:12;17.17;;;5.13;;
3643;SDS011;1838;50.742;7.158;2023-11-19T09:36:38;26.30;;;5.63;;
3643;SDS011;1838;50.742;7.158;2023-11-19T09:39:08;29.33;;;5.03;;
3643;SDS011;1838;50.742;7.158;2023-11-19T09:41:34;21.97;;;5.30;;
3643;SDS011;1838;50.742;7.158;2023-11-19T09:44:00;22.20;;;5.20;;
3643;SDS011;1838;50.742;7.158;2023-11-19T09:46:25;28.90;;;4.67;;
3643;SDS011;1838;50.742;7.158;2023-11-19T09:48:54;21.40;;;4.53;;
3643;SDS011;1838;50.742;7.158;2023-11-19T09:51:22;22.10;;;4.10;;
3643;SDS011;1838;50.742;7.158;2023-11-19T09:53:48;22.07;;;4.40;;
3643;SDS011;1838;50.742;7.158;2023-11-19T09:56:14;21.50;;;4.53;;
3643;SDS011;1838;50.742;7.158;2023-11-19T09:58:41;22.37;;;4.40;;
3643;SDS011;1838;50.742;7.158;2023-11-19T10:01:07;17.43;;;4.23;;
3643;SDS011;1838;50.742;7.158;2023-11-19T10:03:35;27.30;;;3.80;;
3643;SDS011;1838;50.742;7.158;2023-11-19T10:06:04;21.20;;;3.43;;
3643;SDS011;1838;50.742;7.158;2023-11-19T10:08:31;29.17;;;5.00;;
3643;SDS011;1838;50.742;7.158;2023-11-19T10:10:57;19.03;;;4.60;;
3643;SDS011;1838;50.742;7.158;2023-11-19T10:13:27;30.50;;;5.30;;
3643;SDS011;1838;50.742;7.158;2023-11-19T10:15:53;25.07;;;4.07;;
3643;SDS011;1838;50.742;7.158;2023-11-19T10:18:28;18.93;;;3.70;;
3643;SDS011;1838;50.742;7.158;2023-11-19T10:20:53;27.07;;;4.17;;
3643;SDS011;1838;50.742;7.158;2023-11-19T10:23:20;24.13;;;4.10;;
3643;SDS011;1838;50.742;7.158;2023-11-19T10:25:45;22.07;;;6.07;;
3643;SDS011;1838;50.742;7.158;2023-11-19T10:28:11;29.97;;;4.70;;
3643;SDS011;1838;50.742;7.158;2023-11-19T10:30:39;17.23;;;3.30;;
3643;SDS011;1838;50.742;7.158;2023-11-19T10:33:07;30.10;;;5.20;;
3643;SDS011;1838;50.742;7.158;2023-11-19T10:35:51;14.77;;;4.20;;
3643;SDS011;1838;50.742;7.158;2023-11-19T10:38:27;16.30;;;3.80;;
3643;SDS011;1838;50.742;7.158;2023-11-19T10:40:53;24.80;;;4.90;;
3643;SDS011;1838;50.742;7.158;2023-11-19T10:43:22;36.27;;;5.37;;
3643;SDS011;1838;50.742;7.158;2023-11-19T10:45:48;22.60;;;4.90;;
3643;SDS011;1838;50.742;7.158;2023-11-19T10:48:13;14.83;;;3.93;;
3643;SDS011;1838;50.742;7.158;2023-11-19T10:50:40;35.20;;;4.37;;
3643;SDS011;1838;50.742;7.158;2023-11-19T10:53:08;20.97;;;4.90;;
3643;SDS011;1838;50.742;7.158;2023-11-19T10:55:37;19.90;;;4.60;;
3643;SDS011;1838;50.742;7.158;2023-11-19T10:58:04;20.70;;;3.57;;
3643;SDS011;1838;50.742;7.158;2023-11-19T11:03:20;21.07;;;4.43;;
3643;SDS011;1838;50.742;7.158;2023-11-19T11:05:50;23.13;;;3.63;;
3643;SDS011;1838;50.742;7.158;2023-11-19T11:08:17;29.33;;;5.10;;
3643;SDS011;1838;50.742;7.158;2023-11-19T11:10:53;14.17;;;4.63;;
3643;SDS011;1838;50.742;7.158;2023-11-19T11:13:22;17.70;;;3.30;;
3643;SDS011;1838;50.742;7.158;2023-11-19T11:15:49;13.97;;;3.73;;
3643;SDS011;1838;50.742;7.158;2023-11-19T11:18:15;22.07;;;3.10;;
3643;SDS011;1838;50.742;7.158;2023-11-19T11:20:44;12.67;;;3.93;;
3643;SDS011;1838;50.742;7.158;2023-11-19T11:36:36;13.30;;;3.40;;
3643;SDS011;1838;50.742;7.158;2023-11-19T11:39:31;17.20;;;3.67;;
3643;SDS011;1838;50.742;7.158;2023-11-19T11:45:00;11.07;;;3.57;;
3643;SDS011;1838;50.742;7.158;2023-11-19T11:50:13;20.87;;;4.37;;
3643;SDS011;1838;50.742;7.158;2023-11-19T11:55:24;11.30;;;3.50;;
3643;SDS011;1838;50.742;7.158;2023-11-19T11:58:03;12.53;;;3.20;;
3643;SDS011;1838;50.742;7.158;2023-11-19T12:00:30;7.73;;;3.00;;
3643;SDS011;1838;50.742;7.158;2023-11-19T12:03:04;11.47;;;3.47;;
3643;SDS011;1838;50.742;7.158;2023-11-19T12:05:30;14.53;;;4.10;;
3643;SDS011;1838;50.742;7.158;2023-11-19T12:08:00;19.73;;;3.80;;
3643;SDS011;1838;50.742;7.158;2023-11-19T12:10:30;23.33;;;4.50;;
3643;SDS011;1838;50.742;7.158;2023-11-19T12:13:00;17.00;;;3.83;;
3643;SDS011;1838;50.742;7.158;2023-11-19T12:15:26;16.40;;;4.10;;
3643;SDS011;1838;50.742;7.158;2023-11-19T12:17:53;13.97;;;4.07;;
3643;SDS011;1838;50.742;7.158;2023-11-19T12:20:23;18.53;;;3.87;;
3643;SDS011;1838;50.742;7.158;2023-11-19T12:22:51;8.70;;;3.30;;
3643;SDS011;1838;50.742;7.158;2023-11-19T12:25:17;14.27;;;3.60;;
3643;SDS011;1838;50.742;7.158;2023-11-19T12:27:47;15.70;;;3.33;;
3643;SDS011;1838;50.742;7.158;2023-11-19T12:30:17;13.13;;;3.13;;
3643;SDS011;1838;50.742;7.158;2023-11-19T12:32:49;17.17;;;3.93;;
3643;SDS011;1838;50.742;7.158;2023-11-19T12:35:15;12.43;;;3.50;;
3643;SDS011;1838;50.742;7.158;2023-11-19T12:37:41;11.70;;;3.13;;
3643;SDS011;1838;50.742;7.158;2023-11-19T12:40:12;15.40;;;3.73;;
3643;SDS011;1838;50.742;7.158;2023-11-19T12:42:38;11.83;;;3.60;;
3643;SDS011;1838;50.742;7.158;2023-11-19T12:45:05;10.40;;;3.70;;
3643;SDS011;1838;50.742;7.158;2023-11-19T12:47:31;12.30;;;3.43;;
3643;SDS011;1838;50.742;7.158;2023-11-19T12:49:56;15.10;;;3.17;;
3643;SDS011;1838;50.742;7.158;2023-11-19T12:52:23;15.93;;;3.90;;
3643;SDS011;1838;50.742;7.158;2023-11-19T12:54:48;7.40;;;2.77;;
3643;SDS011;1838;50.742;7.158;2023-11-19T12:57:15;23.20;;;3.40;;
3643;SDS011;1838;50.742;7.158;2023-11-19T12:59:40;13.60;;;3.33;;
3643;SDS011;1838;50.742;7.158;2023-11-19T13:02:06;13.83;;;3.90;;
3643;SDS011;1838;50.742;7.158;2023-11-19T13:04:32;9.33;;;3.20;;
3643;SDS011;1838;50.742;7.158;2023-11-19T13:06:58;22.30;;;2.83;;
3643;SDS011;1838;50.742;7.158;2023-11-19T13:09:25;14.40;;;3.50;;
3643;SDS011;1838;50.742;7.158;2023-11-19T13:11:52;12.00;;;3.37;;
3643;SDS011;1838;50.742;7.158;2023-11-19T13:14:18;20.70;;;3.40;;
3643;SDS011;1838;50.742;7.158;2023-11-19T13:16:44;12.87;;;3.70;;
3643;SDS011;1838;50.742;7.158;2023-11-19T13:19:11;11.90;;;3.57;;
3643;SDS011;1838;50.742;7.158;2023-11-19T13:21:37;16.70;;;2.90;;
3643;SDS011;1838;50.742;7.158;2023-11-19T13:24:04;19.00;;;4.10;;
3643;SDS011;1838;50.742;7.158;2023-11-19T13:26:30;13.47;;;3.40;;
3643;SDS011;1838;50.742;7.158;2023-11-19T13:28:56;14.90;;;3.83;;
3643;SDS011;1838;50.742;7.158;2023-11-19T13:31:22;10.20;;;2.83;;
3643;SDS011;1838;50.742;7.158;2023-11-19T13:33:47;17.13;;;3.57;;
3643;SDS011;1838;50.742;7.158;2023-11-19T13:36:13;18.23;;;3.00;;
3643;SDS011;1838;50.742;7.158;2023-11-19T13:38:39;16.73;;;3.47;;
3643;SDS011;1838;50.742;7.158;2023-11-19T13:41:07;34.47;;;4.30;;
3643;SDS011;1838;50.742;7.158;2023-11-19T13:43:34;14.47;;;3.30;;
3643;SDS011;1838;50.742;7.158;2023-11-19T13:46:00;12.70;;;3.00;;
3643;SDS011;1838;50.742;7.158;2023-11-19T13:48:26;16.37;;;3.00;;
3643;SDS011;1838;50.742;7.158;2023-11-19T13:50:53;14.30;;;3.47;;
3643;SDS011;1838;50.742;7.158;2023-11-19T13:53:20;14.37;;;3.70;;
3643;SDS011;1838;50.742;7.158;2023-11-19T13:55:45;15.50;;;4.00;;
3643;SDS011;1838;50.742;7.158;2023-11-19T13:58:11;15.63;;;3.57;;
3643;SDS011;1838;50.742;7.158;2023-11-19T14:00:36;17.80;;;4.80;;
3643;SDS011;1838;50.742;7.158;2023-11-19T14:03:02;16.70;;;3.80;;
3643;SDS011;1838;50.742;7.158;2023-11-19T14:05:28;20.07;;;4.10;;
3643;SDS011;1838;50.742;7.158;2023-11-19T14:07:53;17.23;;;3.17;;
3643;SDS011;1838;50.742;7.158;2023-11-19T14:10:21;15.03;;;3.70;;
3643;SDS011;1838;50.742;7.158;2023-11-19T14:12:47;18.77;;;4.40;;
3643;SDS011;1838;50.742;7.158;2023-11-19T14:15:14;28.20;;;4.83;;
3643;SDS011;1838;50.742;7.158;2023-11-19T14:17:42;11.23;;;3.53;;
3643;SDS011;1838;50.742;7.158;2023-11-19T14:20:08;17.20;;;3.30;;
3643;SDS011;1838;50.742;7.158;2023-11-19T14:22:40;11.83;;;3.43;;
3643;SDS011;1838;50.742;7.158;2023-11-19T14:25:07;16.23;;;3.37;;
3643;SDS011;1838;50.742;7.158;2023-11-19T14:27:36;22.70;;;3.93;;
3643;SDS011;1838;50.742;7.158;2023-11-19T14:30:03;14.50;;;3.97;;
3643;SDS011;1838;50.742;7.158;2023-11-19T14:32:30;39.60;;;4.10;;
3643;SDS011;1838;50.742;7.158;2023-11-19T14:34:56;16.87;;;3.90;;
3643;SDS011;1838;50.742;7.158;2023-11-19T14:37:21;15.10;;;3.90;;
3643;SDS011;1838;50.742;7.158;2023-11-19T14:39:47;18.40;;;3.63;;
3643;SDS011;1838;50.742;7.158;2023-11-19T14:42:12;10.87;;;2.67;;
3643;SDS011;1838;50.742;7.158;2023-11-19T14:44:39;14.20;;;3.13;;
3643;SDS011;1838;50.742;7.158;2023-11-19T14:47:04;13.67;;;2.90;;
3643;SDS011;1838;50.742;7.158;2023-11-19T14:49:30;18.50;;;3.20;;
3643;SDS011;1838;50.742;7.158;2023-11-19T14:51:55;6.60;;;2.50;;
3643;SDS011;1838;50.742;7.158;2023-11-19T14:54:21;13.60;;;3.50;;
3643;SDS011;1838;50.742;7.158;2023-11-19T14:56:47;10.77;;;3.30;;
3643;SDS011;1838;50.742;7.158;2023-11-19T14:59:12;10.40;;;2.60;;
3643;SDS011;1838;50.742;7.158;2023-11-19T15:01:38;11.90;;;3.27;;
3643;SDS011;1838;50.742;7.158;2023-11-19T15:04:05;12.33;;;2.57;;
3643;SDS011;1838;50.742;7.158;2023-11-19T15:06:31;6.40;;;2.40;;
3643;SDS011;1838;50.742;7.158;2023-11-19T15:08:58;17.60;;;3.40;;
3643;SDS011;1838;50.742;7.158;2023-11-19T15:11:24;15.40;;;2.83;;
3643;SDS011;1838;50.742;7.158;2023-11-19T15:13:49;15.60;;;2.50;;
3643;SDS011;1838;50.742;7.158;2023-11-19T15:16:15;16.63;;;2.53;;
3643;SDS011;1838;50.742;7.158;2023-11-19T15:18:46;22.93;;;2.77;;
3643;SDS011;1838;50.742;7.158;2023-11-19T15:21:12;13.93;;;3.60;;
3643;SDS011;1838;50.742;7.158;2023-11-19T15:23:38;8.90;;;2.17;;
3643;SDS011;1838;50.742;7.158;2023-11-19T15:26:05;5.37;;;2.07;;
3643;SDS011;1838;50.742;7.158;2023-11-19T15:28:32;29.40;;;3.50;;